Corona, California
Current Conditions -  °F | °C
As of 12:56 PM on Thursday 20 Nov 2014 (Local Time) from KAJO Reporting Station
Few Clouds Few Clouds  
Wind Chill: 69°   Ceiling: Unl
Heat Index: 69°   Visibility: 10mi
Dew Point: 52°   Wind: 8mph
Humidity: 55%   Direction: 290°WNW
Pressure: 30.03"   Gusts: NA
Location:  33.88°N, 117.57°W
Report Text: KAJO 202056Z AUTO 29007KT 10SM FEW100 21/11 A3003 RMK AO2 58031 T02050111 SLP166 $
Loading
Personal Weather Stations






























Interactive Weather Map New forecast layout! Learn more

10-Day Weather Forecast

Advertisements
Track Severe Weather on mobile